Time;durP1;ratioP1;P1;durP2;ratioP2;P2;SDS_P1;SDS_P2;PMS_P1;PMS_P2;Temp;Humidity;BMP_temperature;BMP_pressure;BME280_temperature;BME280_humidity;BME280_pressure;Samples;Min_cycle;Max_cycle;Signal;HPM_P1;HPM_P2
2021/04/03 00:01:57;;;;;;;;;;;20.10;44.60;;;;;;4992955;28;19956;-69
2021/04/03 00:04:23;;;;;;;;;;;20.00;44.40;;;;;;4967413;28;19965;-70
2021/04/03 00:06:49;;;;;;;;;;;20.00;44.40;;;;;;4972343;28;20016;-69
2021/04/03 00:09:15;;;;;;;;;;;20.00;44.10;;;;;;4973893;28;20333;-70
2021/04/03 00:11:41;;;;;;;;;;;20.00;44.00;;;;;;4974480;28;19956;-69
2021/04/03 00:14:07;;;;;;;;;;;20.00;44.00;;;;;;4967714;28;19965;-70
2021/04/03 00:16:34;;;;;;;;;;;20.00;44.00;;;;;;4977781;28;20089;-70
2021/04/03 00:19:00;;;;;;;;;;;20.00;44.10;;;;;;4980154;28;20010;-69
2021/04/03 00:21:26;;;;;;;;;;;20.00;44.10;;;;;;4977293;28;20407;-71
2021/04/03 00:23:52;;;;;;;;;;;20.00;44.00;;;;;;4981568;28;19969;-69
2021/04/03 00:26:18;;;;;;;;;;;20.00;44.00;;;;;;4976361;28;19957;-69
2021/04/03 00:28:44;;;;;;;;;;;20.00;44.10;;;;;;4965000;28;19988;-70
2021/04/03 00:31:10;;;;;;;;;;;19.90;44.00;;;;;;4963823;28;20695;-68
2021/04/03 00:33:37;;;;;;;;;;;20.00;44.10;;;;;;4967813;28;19970;-69
2021/04/03 00:36:03;;;;;;;;;;;19.90;44.10;;;;;;4983346;28;20035;-69
2021/04/03 00:38:29;;;;;;;;;;;19.90;44.30;;;;;;4977169;28;20981;-69
2021/04/03 00:40:55;;;;;;;;;;;19.90;44.00;;;;;;4978173;28;19968;-69
2021/04/03 00:43:22;;;;;;;;;;;19.90;44.10;;;;;;4968884;28;19988;-69
2021/04/03 00:45:48;;;;;;;;;;;19.90;44.20;;;;;;4974653;28;19960;-69
2021/04/03 00:48:15;;;;;;;;;;;19.90;44.20;;;;;;4971144;28;19961;-70
2021/04/03 00:50:42;;;;;;;;;;;19.80;44.30;;;;;;4977080;28;19961;-70
2021/04/03 00:53:09;;;;;;;;;;;19.80;44.10;;;;;;4952348;28;19957;-69
2021/04/03 00:55:35;;;;;;;;;;;19.90;44.30;;;;;;4970158;28;19968;-69
2021/04/03 00:58:01;;;;;;;;;;;19.80;44.10;;;;;;4977398;28;19956;-69
2021/04/03 01:00:27;;;;;;;;;;;19.80;44.00;;;;;;4976761;28;19969;-70
2021/04/03 01:02:53;;;;;;;;;;;19.90;44.20;;;;;;4980130;28;19964;-70
2021/04/03 01:05:20;;;;;;;;;;;19.90;44.10;;;;;;4977126;28;19961;-70
2021/04/03 01:07:47;;;;;;;;;;;19.80;44.10;;;;;;4974510;28;19984;-70
2021/04/03 01:10:14;;;;;;;;;;;19.80;44.70;;;;;;4977166;28;19972;-69
2021/04/03 01:12:44;;;;;;;;;;;19.80;43.80;;;;;;4965507;28;20051;-69
2021/04/03 01:15:11;;;;;;;;;;;19.80;43.70;;;;;;4966872;28;21231;-69
2021/04/03 01:17:44;;;;;;;;;;;19.80;43.60;;;;;;4977314;28;19961;-69
2021/04/03 01:20:22;;;;;;;;;;;19.80;43.50;;;;;;4976988;28;19964;-70
2021/04/03 01:23:09;;;;;;;;;;;19.90;43.60;;;;;;4947271;28;20072;-69
2021/04/03 01:25:39;;;;;;;;;;;19.90;43.50;;;;;;4971996;28;19964;-69
2021/04/03 01:28:13;;;;;;;;;;;19.90;43.40;;;;;;4976860;28;19961;-69
2021/04/03 01:30:40;;;;;;;;;;;19.90;43.50;;;;;;4961665;28;19965;-69
2021/04/03 01:33:07;;;;;;;;;;;19.90;43.40;;;;;;4978132;28;20012;-69
2021/04/03 01:35:34;;;;;;;;;;;19.90;43.40;;;;;;4977052;28;19968;-69
2021/04/03 01:38:01;;;;;;;;;;;19.90;43.40;;;;;;4960770;28;20456;-69
2021/04/03 01:40:27;;;;;;;;;;;19.90;43.50;;;;;;4960186;28;19961;-69
2021/04/03 01:42:57;;;;;;;;;;;19.80;43.40;;;;;;4971060;28;19961;-70
2021/04/03 01:45:23;;;;;;;;;;;19.80;43.40;;;;;;4971971;28;20743;-70
2021/04/03 01:47:50;;;;;;;;;;;19.80;43.50;;;;;;4956821;28;19968;-69
2021/04/03 01:50:17;;;;;;;;;;;19.80;43.50;;;;;;4962579;28;20025;-69
2021/04/03 01:52:44;;;;;;;;;;;19.80;43.50;;;;;;4978048;28;19968;-69
2021/04/03 01:55:10;;;;;;;;;;;19.90;43.60;;;;;;4973887;28;19961;-69
2021/04/03 01:57:36;;;;;;;;;;;19.80;43.60;;;;;;4975221;28;19961;-69
2021/04/03 02:00:07;;;;;;;;;;;19.80;43.60;;;;;;4979159;28;19987;-69
2021/04/03 02:02:33;;;;;;;;;;;19.80;43.50;;;;;;4963530;28;20380;-69
2021/04/03 02:05:00;;;;;;;;;;;19.80;43.20;;;;;;4987192;28;19969;-69
2021/04/03 02:07:26;;;;;;;;;;;19.80;43.20;;;;;;4983542;28;19965;-69
2021/04/03 02:09:53;;;;;;;;;;;19.80;43.10;;;;;;4978011;28;19960;-70
2021/04/03 02:12:19;;;;;;;;;;;19.80;43.00;;;;;;4973831;28;20015;-69
2021/04/03 02:14:45;;;;;;;;;;;19.90;43.10;;;;;;4970944;28;20035;-69
2021/04/03 02:17:11;;;;;;;;;;;19.90;43.00;;;;;;4973024;28;19972;-69
2021/04/03 02:19:37;;;;;;;;;;;19.90;42.90;;;;;;4975988;28;19961;-69
2021/04/03 02:22:04;;;;;;;;;;;19.80;42.70;;;;;;4979330;28;19963;-69
2021/04/03 02:24:30;;;;;;;;;;;19.80;42.90;;;;;;4972197;28;19968;-69
2021/04/03 02:26:56;;;;;;;;;;;19.80;42.90;;;;;;4976303;28;19961;-69
2021/04/03 02:29:22;;;;;;;;;;;19.80;42.80;;;;;;4974081;28;19967;-69
2021/04/03 02:31:48;;;;;;;;;;;19.80;42.70;;;;;;4974604;28;19962;-69
2021/04/03 02:34:14;;;;;;;;;;;19.80;42.70;;;;;;4976042;28;19964;-69
2021/04/03 02:36:40;;;;;;;;;;;19.80;42.70;;;;;;4947446;28;20398;-69
2021/04/03 02:39:07;;;;;;;;;;;19.80;42.60;;;;;;4973957;28;19968;-70
2021/04/03 02:41:34;;;;;;;;;;;19.80;42.50;;;;;;4973145;28;19993;-69
2021/04/03 02:44:02;;;;;;;;;;;19.90;42.40;;;;;;4969119;28;19961;-69
2021/04/03 02:46:29;;;;;;;;;;;19.90;42.90;;;;;;4963303;28;19961;-70
2021/04/03 02:48:55;;;;;;;;;;;19.90;42.50;;;;;;4976607;28;19961;-69
2021/04/03 02:51:23;;;;;;;;;;;19.80;42.20;;;;;;4973285;28;19961;-69
2021/04/03 02:53:49;;;;;;;;;;;19.80;42.20;;;;;;4974823;28;19968;-70
2021/04/03 02:56:15;;;;;;;;;;;19.80;42.30;;;;;;4959135;28;19996;-69
2021/04/03 02:58:41;;;;;;;;;;;19.90;42.40;;;;;;4953947;28;19965;-69
2021/04/03 03:01:08;;;;;;;;;;;19.80;42.50;;;;;;4973192;28;20466;-69
2021/04/03 03:03:34;;;;;;;;;;;19.80;42.50;;;;;;4975610;28;21106;-69
2021/04/03 03:06:00;;;;;;;;;;;19.80;42.50;;;;;;4975538;28;19956;-70
2021/04/03 03:08:26;;;;;;;;;;;19.80;42.50;;;;;;4977444;28;19964;-69
2021/04/03 03:10:52;;;;;;;;;;;19.70;42.40;;;;;;4975785;28;19961;-68
2021/04/03 03:13:18;;;;;;;;;;;19.70;42.50;;;;;;4968396;28;19961;-70
2021/04/03 03:15:44;;;;;;;;;;;19.70;42.50;;;;;;4974364;28;20016;-70
2021/04/03 03:18:11;;;;;;;;;;;19.70;42.50;;;;;;4976065;28;19960;-69
2021/04/03 03:20:37;;;;;;;;;;;19.70;42.30;;;;;;4972569;28;20783;-69
2021/04/03 03:23:03;;;;;;;;;;;19.70;42.10;;;;;;4976268;28;19957;-70
2021/04/03 03:25:29;;;;;;;;;;;19.70;42.00;;;;;;4971569;28;19961;-70
2021/04/03 03:27:55;;;;;;;;;;;19.70;42.00;;;;;;4976215;28;20015;-70
2021/04/03 03:30:22;;;;;;;;;;;19.70;42.10;;;;;;4965169;28;19961;-71
2021/04/03 03:32:48;;;;;;;;;;;19.70;41.90;;;;;;4976432;28;20421;-70
2021/04/03 03:35:14;;;;;;;;;;;19.70;41.90;;;;;;4979598;28;19961;-70
2021/04/03 03:37:41;;;;;;;;;;;19.70;41.70;;;;;;4970551;28;19960;-70
2021/04/03 03:40:07;;;;;;;;;;;19.70;41.80;;;;;;4977705;28;19971;-70
2021/04/03 03:42:34;;;;;;;;;;;19.70;41.90;;;;;;4972910;28;19966;-69
2021/04/03 03:45:01;;;;;;;;;;;19.70;42.00;;;;;;4974847;28;19957;-70
2021/04/03 03:47:27;;;;;;;;;;;19.70;41.70;;;;;;4978844;28;19960;-70
2021/04/03 03:49:53;;;;;;;;;;;19.70;41.60;;;;;;4969467;28;20020;-69
2021/04/03 03:52:19;;;;;;;;;;;19.70;41.70;;;;;;4959044;28;19986;-70
2021/04/03 03:54:45;;;;;;;;;;;19.70;41.80;;;;;;4977222;28;20314;-70
2021/04/03 03:57:12;;;;;;;;;;;19.70;41.60;;;;;;4980379;28;20125;-70
2021/04/03 03:59:38;;;;;;;;;;;19.70;41.60;;;;;;4978843;28;19969;-70
2021/04/03 04:02:04;;;;;;;;;;;19.80;42.20;;;;;;4986658;28;19960;-70
2021/04/03 04:04:31;;;;;;;;;;;19.80;41.20;;;;;;4977393;28;20559;-69
2021/04/03 04:06:57;;;;;;;;;;;19.70;41.10;;;;;;4981585;28;20030;-71
2021/04/03 04:09:24;;;;;;;;;;;19.70;41.20;;;;;;4953719;28;20014;-71
2021/04/03 04:11:50;;;;;;;;;;;19.70;41.20;;;;;;4971385;28;20517;-70
2021/04/03 04:14:16;;;;;;;;;;;19.70;41.30;;;;;;4975106;28;20011;-70
2021/04/03 04:16:43;;;;;;;;;;;19.70;41.30;;;;;;4950344;28;19960;-70
2021/04/03 04:19:09;;;;;;;;;;;19.70;41.20;;;;;;4981189;28;19959;-70
2021/04/03 04:21:36;;;;;;;;;;;19.70;41.00;;;;;;4954474;28;19961;-70
2021/04/03 04:24:02;;;;;;;;;;;19.70;41.00;;;;;;4965100;28;20035;-71
2021/04/03 04:26:28;;;;;;;;;;;19.70;40.80;;;;;;4977810;28;19957;-69
2021/04/03 04:28:54;;;;;;;;;;;19.70;40.80;;;;;;4936252;28;20461;-70
2021/04/03 04:31:20;;;;;;;;;;;19.70;41.00;;;;;;4975239;28;20640;-70
2021/04/03 04:33:46;;;;;;;;;;;19.70;41.20;;;;;;4976631;28;19968;-70
2021/04/03 04:36:12;;;;;;;;;;;19.70;41.20;;;;;;4975907;28;19961;-70
2021/04/03 04:38:39;;;;;;;;;;;19.70;41.30;;;;;;4973723;28;19968;-69
2021/04/03 04:41:05;;;;;;;;;;;19.60;41.20;;;;;;4973967;28;19969;-70
2021/04/03 04:43:31;;;;;;;;;;;19.70;41.40;;;;;;4971767;28;20039;-69
2021/04/03 04:45:57;;;;;;;;;;;19.60;41.40;;;;;;4977984;28;20771;-70
2021/04/03 04:48:23;;;;;;;;;;;19.60;41.30;;;;;;4980061;28;20015;-69
2021/04/03 04:50:49;;;;;;;;;;;19.60;41.00;;;;;;4980768;28;19984;-69
2021/04/03 04:53:15;;;;;;;;;;;19.60;40.90;;;;;;4973943;28;20392;-69
2021/04/03 04:55:42;;;;;;;;;;;19.60;40.90;;;;;;4975298;28;20315;-69
2021/04/03 04:58:08;;;;;;;;;;;19.60;40.90;;;;;;4980772;28;19965;-70
2021/04/03 05:00:34;;;;;;;;;;;19.60;40.90;;;;;;4968840;28;20007;-69
2021/04/03 05:03:00;;;;;;;;;;;19.60;40.80;;;;;;4980729;28;20011;-70
2021/04/03 05:05:26;;;;;;;;;;;19.60;40.70;;;;;;4978315;28;21455;-70
2021/04/03 05:07:52;;;;;;;;;;;19.60;40.70;;;;;;4978751;28;19968;-70
2021/04/03 05:10:18;;;;;;;;;;;19.50;40.40;;;;;;4971491;28;20318;-70
2021/04/03 05:12:45;;;;;;;;;;;19.50;40.70;;;;;;4971804;28;20023;-70
2021/04/03 05:15:11;;;;;;;;;;;19.50;40.90;;;;;;4975827;28;19969;-69
2021/04/03 05:17:37;;;;;;;;;;;19.50;40.70;;;;;;4967025;28;19961;-70
2021/04/03 05:20:03;;;;;;;;;;;19.50;40.20;;;;;;4980409;28;19965;-69
2021/04/03 05:22:29;;;;;;;;;;;19.50;40.50;;;;;;4968228;28;19961;-70
2021/04/03 05:24:55;;;;;;;;;;;19.50;40.50;;;;;;4973284;28;19957;-69
2021/04/03 05:27:21;;;;;;;;;;;19.50;40.70;;;;;;4977534;28;19961;-69
2021/04/03 05:29:48;;;;;;;;;;;19.50;40.60;;;;;;4982702;28;19957;-69
2021/04/03 05:32:14;;;;;;;;;;;19.50;40.60;;;;;;5001294;28;19949;-72
2021/04/03 05:34:40;;;;;;;;;;;19.50;40.50;;;;;;5012828;28;19950;-71
2021/04/03 05:37:06;;;;;;;;;;;19.50;40.50;;;;;;5002755;28;19964;-69
2021/04/03 05:39:32;;;;;;;;;;;19.50;40.80;;;;;;4994759;28;20023;-68
2021/04/03 05:41:58;;;;;;;;;;;19.50;40.80;;;;;;4980330;28;19964;-68
2021/04/03 05:44:24;;;;;;;;;;;19.40;41.00;;;;;;4971232;28;19965;-69
2021/04/03 05:46:51;;;;;;;;;;;19.40;40.80;;;;;;4981130;28;20454;-68
2021/04/03 05:49:17;;;;;;;;;;;19.40;41.80;;;;;;4982390;28;20334;-69
2021/04/03 05:51:43;;;;;;;;;;;19.40;41.00;;;;;;4988886;28;19965;-69
2021/04/03 05:54:09;;;;;;;;;;;19.30;40.80;;;;;;4991205;28;20015;-70
2021/04/03 05:56:35;;;;;;;;;;;19.30;40.60;;;;;;4991741;28;19964;-70
2021/04/03 05:59:01;;;;;;;;;;;19.30;40.50;;;;;;4960945;28;20505;-70
2021/04/03 06:01:27;;;;;;;;;;;19.30;40.40;;;;;;4978030;28;19996;-70
2021/04/03 06:03:55;;;;;;;;;;;19.40;40.60;;;;;;4980058;28;20019;-70
2021/04/03 06:06:24;;;;;;;;;;;19.40;40.30;;;;;;4976265;28;20353;-69
2021/04/03 06:08:50;;;;;;;;;;;19.40;40.40;;;;;;4978418;28;21475;-69
2021/04/03 06:11:16;;;;;;;;;;;19.40;40.50;;;;;;4975656;28;19961;-70
2021/04/03 06:13:43;;;;;;;;;;;19.50;40.50;;;;;;4968622;28;19961;-69
2021/04/03 06:16:25;;;;;;;;;;;19.50;40.60;;;;;;4974571;28;19957;-70
2021/04/03 06:19:05;;;;;;;;;;;19.40;40.50;;;;;;4977592;28;20001;-69
2021/04/03 06:21:31;;;;;;;;;;;19.50;40.80;;;;;;4974247;28;19968;-69
2021/04/03 06:23:57;;;;;;;;;;;19.50;40.80;;;;;;4975914;28;19960;-69
2021/04/03 06:26:23;;;;;;;;;;;19.50;41.00;;;;;;4964011;28;20755;-70
2021/04/03 06:28:49;;;;;;;;;;;19.50;41.50;;;;;;4978978;28;19961;-69
2021/04/03 06:31:16;;;;;;;;;;;19.50;40.70;;;;;;4976592;28;19964;-69
2021/04/03 06:33:42;;;;;;;;;;;19.50;40.60;;;;;;4971420;28;20654;-69
2021/04/03 06:36:09;;;;;;;;;;;19.50;40.40;;;;;;4978059;28;19991;-71
2021/04/03 06:38:36;;;;;;;;;;;19.50;40.50;;;;;;4976889;28;20016;-69
2021/04/03 06:41:14;;;;;;;;;;;19.50;40.70;;;;;;4950386;28;19956;-69
2021/04/03 06:43:40;;;;;;;;;;;19.50;40.70;;;;;;4968137;28;19968;-69
2021/04/03 06:46:11;;;;;;;;;;;19.50;40.60;;;;;;4978856;28;20880;-69
2021/04/03 06:48:37;;;;;;;;;;;19.50;40.50;;;;;;4973672;28;20432;-70
2021/04/03 06:51:03;;;;;;;;;;;19.50;40.50;;;;;;4979984;28;20074;-69
2021/04/03 06:53:30;;;;;;;;;;;19.50;41.20;;;;;;4973737;28;20024;-69
2021/04/03 06:55:56;;;;;;;;;;;19.60;41.30;;;;;;4975737;28;19968;-70
2021/04/03 06:58:22;;;;;;;;;;;19.60;40.50;;;;;;4976257;28;20051;-69
2021/04/03 07:00:48;;;;;;;;;;;19.60;40.40;;;;;;4976669;28;20019;-69
2021/04/03 07:03:16;;;;;;;;;;;19.60;41.30;;;;;;4980314;28;20368;-70
2021/04/03 07:05:43;;;;;;;;;;;19.60;40.60;;;;;;4974884;28;20028;-69
2021/04/03 07:08:09;;;;;;;;;;;19.60;41.00;;;;;;4978184;28;19968;-70
2021/04/03 07:10:36;;;;;;;;;;;19.60;40.90;;;;;;4972372;28;19968;-70
2021/04/03 07:13:02;;;;;;;;;;;19.60;41.00;;;;;;4970023;28;19965;-69
2021/04/03 07:15:29;;;;;;;;;;;19.60;40.70;;;;;;4972209;28;20358;-70
2021/04/03 07:17:55;;;;;;;;;;;19.60;40.50;;;;;;4979341;28;19965;-69
2021/04/03 07:20:21;;;;;;;;;;;19.60;40.40;;;;;;4975518;28;19984;-69
2021/04/03 07:22:48;;;;;;;;;;;19.60;40.20;;;;;;4977145;28;20015;-69
2021/04/03 07:25:14;;;;;;;;;;;19.60;40.30;;;;;;4973392;28;19961;-70
2021/04/03 07:27:41;;;;;;;;;;;19.60;40.20;;;;;;4977813;28;19961;-70
2021/04/03 07:30:08;;;;;;;;;;;19.60;40.20;;;;;;4976202;28;19968;-70
2021/04/03 07:32:37;;;;;;;;;;;19.60;40.40;;;;;;4972567;28;19961;-70
2021/04/03 07:35:16;;;;;;;;;;;19.60;40.30;;;;;;4964920;28;20412;-70
2021/04/03 07:37:42;;;;;;;;;;;19.60;40.40;;;;;;4964442;28;19957;-71
2021/04/03 07:40:11;;;;;;;;;;;19.60;40.50;;;;;;4973051;28;19952;-71
2021/04/03 07:42:38;;;;;;;;;;;19.50;40.60;;;;;;4968171;28;19961;-74
2021/04/03 07:45:05;;;;;;;;;;;19.60;41.10;;;;;;4960217;28;19961;-71
2021/04/03 07:47:33;;;;;;;;;;;19.50;40.70;;;;;;4967912;28;19961;-72
2021/04/03 07:49:59;;;;;;;;;;;19.50;40.80;;;;;;4961078;28;19964;-70
2021/04/03 07:52:43;;;;;;;;;;;19.60;40.90;;;;;;4976508;28;19956;-71
2021/04/03 07:55:28;;;;;;;;;;;19.60;40.60;;;;;;4959910;28;19968;-69
2021/04/03 07:57:55;;;;;;;;;;;19.60;40.40;;;;;;4968887;28;19961;-71
2021/04/03 08:00:23;;;;;;;;;;;19.60;40.20;;;;;;4966532;28;19961;-70
2021/04/03 08:02:49;;;;;;;;;;;19.70;40.10;;;;;;4956324;28;20369;-71
2021/04/03 08:05:15;;;;;;;;;;;19.70;40.00;;;;;;4965414;28;20691;-71
2021/04/03 08:07:41;;;;;;;;;;;19.80;39.90;;;;;;4956574;28;19957;-70
2021/04/03 08:10:17;;;;;;;;;;;19.80;39.90;;;;;;4966317;28;19968;-71
2021/04/03 08:12:43;;;;;;;;;;;19.70;40.80;;;;;;4964742;28;19967;-70
2021/04/03 08:15:10;;;;;;;;;;;19.70;40.30;;;;;;4966714;28;19961;-71
2021/04/03 08:17:36;;;;;;;;;;;19.70;40.40;;;;;;4968857;28;19965;-71
2021/04/03 08:20:03;;;;;;;;;;;19.70;40.60;;;;;;4938448;28;19973;-70
2021/04/03 08:22:29;;;;;;;;;;;19.60;40.40;;;;;;4969230;28;19964;-71
2021/04/03 08:24:55;;;;;;;;;;;19.60;40.30;;;;;;4974960;28;19964;-70
2021/04/03 08:27:30;;;;;;;;;;;19.60;40.30;;;;;;4937798;28;19961;-70
2021/04/03 08:29:57;;;;;;;;;;;19.60;39.90;;;;;;4966276;28;19956;-71
2021/04/03 08:32:23;;;;;;;;;;;19.60;39.90;;;;;;4967345;28;19961;-70
2021/04/03 08:34:50;;;;;;;;;;;19.60;39.90;;;;;;4973733;28;20480;-70
2021/04/03 08:37:16;;;;;;;;;;;19.60;40.10;;;;;;4948219;28;19949;-71
2021/04/03 08:39:42;;;;;;;;;;;19.60;39.90;;;;;;4965728;28;19961;-70
2021/04/03 08:42:08;;;;;;;;;;;19.60;39.80;;;;;;4958504;28;19965;-70
2021/04/03 08:44:34;;;;;;;;;;;19.70;39.70;;;;;;4965297;28;20530;-71
2021/04/03 08:47:00;;;;;;;;;;;19.70;39.40;;;;;;4957147;28;19961;-70
2021/04/03 08:49:28;;;;;;;;;;;19.70;39.20;;;;;;4970178;28;19953;-71
2021/04/03 08:51:55;;;;;;;;;;;19.70;39.10;;;;;;4972386;28;22255;-70
2021/04/03 08:54:21;;;;;;;;;;;19.70;38.90;;;;;;4967716;28;20016;-71
2021/04/03 08:56:47;;;;;;;;;;;19.80;39.30;;;;;;4962191;28;20011;-71
2021/04/03 08:59:14;;;;;;;;;;;19.70;40.20;;;;;;4971723;28;19956;-71
2021/04/03 09:01:41;;;;;;;;;;;19.70;39.50;;;;;;4974335;28;19953;-70
2021/04/03 09:04:08;;;;;;;;;;;19.70;39.60;;;;;;4959409;28;19961;-70
2021/04/03 09:06:41;;;;;;;;;;;19.70;39.80;;;;;;4981739;28;19937;-70
2021/04/03 09:09:08;;;;;;;;;;;19.70;39.60;;;;;;4966659;28;19976;-70
2021/04/03 09:11:34;;;;;;;;;;;19.70;39.50;;;;;;4962534;28;19956;-70
2021/04/03 09:14:00;;;;;;;;;;;19.60;38.90;;;;;;4945231;28;20496;-71
2021/04/03 09:16:34;;;;;;;;;;;19.60;38.90;;;;;;4949397;28;19960;-70
2021/04/03 09:19:00;;;;;;;;;;;19.60;39.00;;;;;;4975308;28;19953;-71
2021/04/03 09:21:26;;;;;;;;;;;19.60;39.00;;;;;;4976563;28;19964;-70
2021/04/03 09:23:52;;;;;;;;;;;19.60;39.00;;;;;;4975212;28;19965;-70
2021/04/03 09:26:30;;;;;;;;;;;19.60;38.80;;;;;;4979938;28;19942;-70
2021/04/03 09:29:02;;;;;;;;;;;19.60;38.70;;;;;;4981766;28;19937;-71
2021/04/03 09:31:36;;;;;;;;;;;19.60;38.60;;;;;;5011608;28;19937;-70
2021/04/03 09:34:02;;;;;;;;;;;19.60;38.20;;;;;;5008619;28;19963;-71
2021/04/03 09:36:28;;;;;;;;;;;19.60;39.00;;;;;;5006871;28;19937;-69
2021/04/03 09:38:54;;;;;;;;;;;19.60;39.50;;;;;;4990731;28;20388;-70
2021/04/03 09:41:23;;;;;;;;;;;19.60;38.70;;;;;;4987253;28;19948;-70
2021/04/03 09:43:52;;;;;;;;;;;19.60;38.70;;;;;;4973143;28;20216;-69
2021/04/03 09:46:18;;;;;;;;;;;19.60;38.30;;;;;;4986827;28;19941;-70
2021/04/03 09:48:44;;;;;;;;;;;19.60;38.40;;;;;;4981792;28;19942;-70
2021/04/03 09:51:10;;;;;;;;;;;19.60;38.40;;;;;;4971211;28;19937;-73
2021/04/03 09:53:36;;;;;;;;;;;19.60;37.50;;;;;;4972115;28;19949;-73
2021/04/03 09:56:02;;;;;;;;;;;19.60;38.30;;;;;;4978140;28;19937;-70
2021/04/03 09:58:28;;;;;;;;;;;19.60;37.90;;;;;;4983686;28;20479;-72
2021/04/03 10:00:55;;;;;;;;;;;19.70;38.40;;;;;;4983030;28;19941;-74
2021/04/03 10:03:21;;;;;;;;;;;19.70;39.70;;;;;;4985681;28;19969;-77
2021/04/03 10:05:47;;;;;;;;;;;19.90;39.60;;;;;;4982233;28;19960;-73
2021/04/03 10:08:13;;;;;;;;;;;19.90;39.20;;;;;;4980543;28;19941;-69
2021/04/03 10:10:39;;;;;;;;;;;20.00;38.80;;;;;;4978837;28;19941;-71
2021/04/03 10:13:06;;;;;;;;;;;20.10;38.90;;;;;;4982217;28;20004;-71
2021/04/03 10:15:32;;;;;;;;;;;20.10;38.00;;;;;;4981313;28;19948;-73
2021/04/03 10:17:59;;;;;;;;;;;20.10;38.00;;;;;;4979186;28;20325;-70
2021/04/03 10:20:27;;;;;;;;;;;20.10;38.00;;;;;;4977345;28;19962;-72
2021/04/03 10:22:54;;;;;;;;;;;20.10;37.90;;;;;;4983844;28;19953;-71
2021/04/03 10:25:20;;;;;;;;;;;20.10;37.90;;;;;;4975036;28;19933;-72
2021/04/03 10:27:46;;;;;;;;;;;20.10;38.00;;;;;;4978989;28;20976;-72
2021/04/03 10:30:13;;;;;;;;;;;20.10;37.90;;;;;;4978059;28;19937;-70
2021/04/03 10:32:39;;;;;;;;;;;20.10;38.00;;;;;;4977306;28;19953;-73
2021/04/03 10:35:06;;;;;;;;;;;20.10;37.90;;;;;;4973686;28;19937;-71
2021/04/03 10:37:33;;;;;;;;;;;20.10;38.00;;;;;;4977676;28;20526;-70
2021/04/03 10:39:59;;;;;;;;;;;20.10;38.00;;;;;;4985511;28;19948;-72
2021/04/03 10:42:25;;;;;;;;;;;20.10;37.90;;;;;;4994851;28;19949;-74
2021/04/03 10:44:51;;;;;;;;;;;20.10;37.90;;;;;;5000325;28;20336;-68
2021/04/03 10:47:17;;;;;;;;;;;20.10;37.90;;;;;;4985466;28;19940;-72
2021/04/03 10:49:43;;;;;;;;;;;20.10;38.00;;;;;;4982727;28;19933;-71
2021/04/03 10:52:09;;;;;;;;;;;20.20;38.10;;;;;;4981860;28;19944;-73
2021/04/03 10:54:35;;;;;;;;;;;20.30;38.20;;;;;;4983312;28;19940;-71
2021/04/03 10:57:02;;;;;;;;;;;20.30;38.00;;;;;;4983854;28;19934;-71
2021/04/03 10:59:28;;;;;;;;;;;20.40;38.20;;;;;;4976752;28;19944;-71
2021/04/03 11:01:54;;;;;;;;;;;20.40;37.90;;;;;;4986794;28;19956;-72
2021/04/03 11:04:20;;;;;;;;;;;20.50;37.80;;;;;;4996507;28;19953;-70
2021/04/03 11:06:46;;;;;;;;;;;20.50;37.50;;;;;;4984924;28;19937;-73
2021/04/03 11:09:12;;;;;;;;;;;20.50;37.80;;;;;;4978056;28;19963;-70
2021/04/03 11:11:38;;;;;;;;;;;20.50;37.60;;;;;;4981687;28;19963;-73
2021/04/03 11:14:04;;;;;;;;;;;20.50;38.30;;;;;;4982387;28;20376;-71
2021/04/03 11:16:30;;;;;;;;;;;20.50;38.20;;;;;;4981140;28;20000;-71
2021/04/03 11:18:56;;;;;;;;;;;20.50;37.80;;;;;;4983629;28;19933;-74
2021/04/03 11:21:22;;;;;;;;;;;20.50;37.70;;;;;;4977604;28;19937;-70
2021/04/03 11:23:49;;;;;;;;;;;20.60;37.90;;;;;;4981008;28;19957;-72
2021/04/03 11:26:16;;;;;;;;;;;20.60;37.80;;;;;;4981938;28;20665;-75
2021/04/03 11:28:42;;;;;;;;;;;20.60;37.60;;;;;;4977715;28;19937;-74
2021/04/03 11:31:08;;;;;;;;;;;20.50;37.30;;;;;;4979062;28;20357;-69
2021/04/03 11:33:34;;;;;;;;;;;20.50;37.50;;;;;;4979533;28;19960;-71
2021/04/03 11:36:00;;;;;;;;;;;20.60;37.80;;;;;;4977970;28;19937;-74
2021/04/03 11:38:26;;;;;;;;;;;20.60;38.30;;;;;;4980293;28;20595;-72
2021/04/03 11:40:52;;;;;;;;;;;20.60;37.40;;;;;;4982737;28;19933;-77
2021/04/03 11:43:20;;;;;;;;;;;20.60;37.40;;;;;;4977778;28;19964;-75
2021/04/03 11:45:46;;;;;;;;;;;20.70;37.80;;;;;;4978327;28;20421;-74
2021/04/03 11:48:12;;;;;;;;;;;20.70;37.70;;;;;;4979736;28;19941;-77
2021/04/03 11:50:39;;;;;;;;;;;20.70;37.50;;;;;;4978836;28;19983;-78
2021/04/03 11:53:05;;;;;;;;;;;20.70;37.70;;;;;;4980298;28;19949;-76
2021/04/03 11:55:31;;;;;;;;;;;20.70;37.10;;;;;;4980753;28;19941;-76
2021/04/03 11:57:58;;;;;;;;;;;20.80;37.20;;;;;;4983768;28;19937;-75
2021/04/03 12:00:24;;;;;;;;;;;20.80;37.00;;;;;;4986274;28;20421;-74
2021/04/03 12:02:50;;;;;;;;;;;20.80;37.30;;;;;;4984713;28;19964;-76
2021/04/03 12:05:18;;;;;;;;;;;20.80;36.90;;;;;;4981391;28;19954;-76
2021/04/03 12:07:44;;;;;;;;;;;20.80;37.30;;;;;;5002074;28;19961;-79
2021/04/03 12:10:11;;;;;;;;;;;20.80;37.20;;;;;;4994563;28;20321;-76
2021/04/03 12:12:39;;;;;;;;;;;20.80;37.10;;;;;;4985250;28;20341;-74
2021/04/03 12:15:06;;;;;;;;;;;20.70;36.60;;;;;;4982551;28;19948;-75
2021/04/03 12:17:33;;;;;;;;;;;20.70;36.90;;;;;;4988570;28;19944;-76
2021/04/03 12:19:59;;;;;;;;;;;20.70;36.40;;;;;;4985157;28;20332;-73
2021/04/03 12:22:25;;;;;;;;;;;20.70;36.60;;;;;;4984357;28;19974;-73
2021/04/03 12:24:51;;;;;;;;;;;20.70;36.80;;;;;;4980988;28;19953;-73
2021/04/03 12:27:17;;;;;;;;;;;20.70;36.80;;;;;;4984206;28;19964;-73
2021/04/03 12:29:43;;;;;;;;;;;20.70;36.50;;;;;;4981348;28;19941;-74
2021/04/03 12:32:09;;;;;;;;;;;20.80;36.60;;;;;;4983155;28;19967;-70
2021/04/03 12:34:36;;;;;;;;;;;20.80;36.70;;;;;;4983046;28;19948;-72
2021/04/03 12:37:02;;;;;;;;;;;20.80;36.70;;;;;;4983637;28;19940;-73
2021/04/03 12:39:28;;;;;;;;;;;20.80;36.60;;;;;;4981375;28;19991;-75
2021/04/03 12:41:54;;;;;;;;;;;20.80;36.40;;;;;;4959936;28;19941;-72
2021/04/03 12:44:20;;;;;;;;;;;20.80;36.10;;;;;;4948504;28;19957;-72
2021/04/03 12:46:46;;;;;;;;;;;20.70;35.70;;;;;;4978570;28;19961;-71
2021/04/03 12:49:12;;;;;;;;;;;20.80;35.90;;;;;;4982204;28;20484;-73
2021/04/03 12:51:39;;;;;;;;;;;20.80;35.80;;;;;;4982237;28;20493;-72
2021/04/03 12:54:05;;;;;;;;;;;20.90;36.20;;;;;;4993249;28;20412;-74
2021/04/03 12:56:31;;;;;;;;;;;20.90;35.90;;;;;;4983202;28;19956;-74
2021/04/03 12:58:57;;;;;;;;;;;20.90;35.50;;;;;;4982112;28;20310;-71
2021/04/03 13:01:23;;;;;;;;;;;20.80;35.50;;;;;;4984082;28;20433;-71
2021/04/03 13:03:51;;;;;;;;;;;20.80;35.50;;;;;;4982747;28;19953;-71
2021/04/03 13:06:17;;;;;;;;;;;20.80;35.60;;;;;;4979066;28;20008;-73
2021/04/03 13:08:44;;;;;;;;;;;20.80;35.50;;;;;;4981114;28;20360;-74
2021/04/03 13:11:10;;;;;;;;;;;20.80;35.20;;;;;;4981371;28;20359;-70
2021/04/03 13:13:36;;;;;;;;;;;20.80;35.10;;;;;;4983195;28;19952;-71
2021/04/03 13:16:02;;;;;;;;;;;20.80;35.20;;;;;;4982139;28;19996;-71
2021/04/03 13:18:28;;;;;;;;;;;20.80;35.30;;;;;;4979339;28;20394;-73
2021/04/03 13:20:54;;;;;;;;;;;20.80;35.30;;;;;;4979545;28;19941;-76
2021/04/03 13:23:20;;;;;;;;;;;20.80;35.10;;;;;;4981707;28;20429;-73
2021/04/03 13:25:47;;;;;;;;;;;20.80;35.50;;;;;;4980815;28;19937;-72
2021/04/03 13:28:13;;;;;;;;;;;20.90;35.60;;;;;;4982146;28;19933;-72
2021/04/03 13:30:39;;;;;;;;;;;20.90;35.60;;;;;;4980417;28;19968;-74
2021/04/03 13:33:05;;;;;;;;;;;20.90;35.90;;;;;;4980516;28;19957;-74
2021/04/03 13:35:31;;;;;;;;;;;20.90;35.50;;;;;;4979509;28;20011;-73
2021/04/03 13:37:57;;;;;;;;;;;21.00;35.70;;;;;;4982166;28;19941;-73
2021/04/03 13:40:23;;;;;;;;;;;21.00;35.90;;;;;;4981242;28;19991;-74
2021/04/03 13:42:50;;;;;;;;;;;21.00;35.80;;;;;;4978543;28;19949;-74
2021/04/03 13:45:16;;;;;;;;;;;20.90;36.00;;;;;;4977687;28;19949;-73
2021/04/03 13:47:42;;;;;;;;;;;21.00;36.20;;;;;;4981719;28;20637;-74
2021/04/03 13:50:09;;;;;;;;;;;21.00;36.10;;;;;;4978591;28;19965;-73
2021/04/03 13:52:35;;;;;;;;;;;21.00;36.20;;;;;;4982447;28;19953;-73
2021/04/03 13:55:01;;;;;;;;;;;21.00;36.10;;;;;;4979683;28;19941;-72
2021/04/03 13:57:30;;;;;;;;;;;21.00;36.20;;;;;;4981375;28;19995;-73
2021/04/03 13:59:57;;;;;;;;;;;21.00;36.40;;;;;;4984093;28;19941;-74
2021/04/03 14:02:23;;;;;;;;;;;21.00;36.40;;;;;;4980013;28;19957;-73
2021/04/03 14:04:48;;;;;;;;;;;21.00;36.20;;;;;;4980667;28;20015;-73
2021/04/03 14:07:15;;;;;;;;;;;21.00;36.10;;;;;;4977407;28;19941;-74
2021/04/03 14:09:41;;;;;;;;;;;20.90;36.20;;;;;;4982376;28;20470;-73
2021/04/03 14:12:07;;;;;;;;;;;20.90;36.10;;;;;;4980107;28;19934;-74
2021/04/03 14:14:33;;;;;;;;;;;21.00;36.40;;;;;;4981936;28;19975;-72